sensor_id;sensor_type;location;lat;lon;timestamp;temperature;humidity
43089;DHT22;28709;52.030;5.652;2022-12-20T00:01:25;11.00;99.90
43089;DHT22;28709;52.030;5.652;2022-12-20T00:03:53;11.00;99.90
43089;DHT22;28709;52.030;5.652;2022-12-20T00:06:20;11.00;99.90
43089;DHT22;28709;52.030;5.652;2022-12-20T00:08:46;11.10;99.90
43089;DHT22;28709;52.030;5.652;2022-12-20T00:11:12;11.10;99.90
43089;DHT22;28709;52.030;5.652;2022-12-20T00:13:38;11.10;99.90
43089;DHT22;28709;52.030;5.652;2022-12-20T00:16:06;11.10;99.90
43089;DHT22;28709;52.030;5.652;2022-12-20T00:18:32;11.10;99.90
43089;DHT22;28709;52.030;5.652;2022-12-20T00:20:59;11.10;99.90
43089;DHT22;28709;52.030;5.652;2022-12-20T00:23:25;11.10;99.90
43089;DHT22;28709;52.030;5.652;2022-12-20T00:25:50;11.10;99.90
43089;DHT22;28709;52.030;5.652;2022-12-20T00:28:16;11.10;99.90
43089;DHT22;28709;52.030;5.652;2022-12-20T00:30:42;11.10;99.90
43089;DHT22;28709;52.030;5.652;2022-12-20T00:33:07;11.10;99.90
43089;DHT22;28709;52.030;5.652;2022-12-20T00:35:33;11.20;99.90
43089;DHT22;28709;52.030;5.652;2022-12-20T00:37:59;11.20;99.90
43089;DHT22;28709;52.030;5.652;2022-12-20T00:40:24;11.20;99.90
43089;DHT22;28709;52.030;5.652;2022-12-20T00:42:50;11.30;99.90
43089;DHT22;28709;52.030;5.652;2022-12-20T00:45:16;11.30;99.90
43089;DHT22;28709;52.030;5.652;2022-12-20T00:47:41;11.30;99.90
43089;DHT22;28709;52.030;5.652;2022-12-20T00:50:07;11.40;99.90
43089;DHT22;28709;52.030;5.652;2022-12-20T00:52:33;11.40;99.90
43089;DHT22;28709;52.030;5.652;2022-12-20T00:54:59;11.40;99.90
43089;DHT22;28709;52.030;5.652;2022-12-20T00:57:24;11.40;99.90
43089;DHT22;28709;52.030;5.652;2022-12-20T00:59:50;11.40;99.90
43089;DHT22;28709;52.030;5.652;2022-12-20T01:02:15;11.40;99.90
43089;DHT22;28709;52.030;5.652;2022-12-20T01:04:41;11.50;99.90
43089;DHT22;28709;52.030;5.652;2022-12-20T01:07:07;11.50;99.90
43089;DHT22;28709;52.030;5.652;2022-12-20T01:09:32;11.50;99.90
43089;DHT22;28709;52.030;5.652;2022-12-20T01:11:58;11.50;99.90
43089;DHT22;28709;52.030;5.652;2022-12-20T01:14:24;11.50;99.90
43089;DHT22;28709;52.030;5.652;2022-12-20T01:16:49;11.40;99.90
43089;DHT22;28709;52.030;5.652;2022-12-20T01:19:16;11.20;99.90
43089;DHT22;28709;52.030;5.652;2022-12-20T01:21:42;11.10;99.90
43089;DHT22;28709;52.030;5.652;2022-12-20T01:24:15;11.10;99.90
43089;DHT22;28709;52.030;5.652;2022-12-20T01:26:41;11.10;99.90
43089;DHT22;28709;52.030;5.652;2022-12-20T01:29:07;11.10;99.90
43089;DHT22;28709;52.030;5.652;2022-12-20T01:31:34;11.10;99.90
43089;DHT22;28709;52.030;5.652;2022-12-20T01:34:00;10.90;99.90
43089;DHT22;28709;52.030;5.652;2022-12-20T01:36:29;10.80;99.90
43089;DHT22;28709;52.030;5.652;2022-12-20T01:39:07;10.70;99.90
43089;DHT22;28709;52.030;5.652;2022-12-20T01:41:34;10.70;99.90
43089;DHT22;28709;52.030;5.652;2022-12-20T01:44:47;10.70;99.90
43089;DHT22;28709;52.030;5.652;2022-12-20T01:46:49;10.60;99.90
43089;DHT22;28709;52.030;5.652;2022-12-20T01:49:33;10.50;99.90
43089;DHT22;28709;52.030;5.652;2022-12-20T01:52:07;10.40;99.90
43089;DHT22;28709;52.030;5.652;2022-12-20T01:54:44;10.30;99.90
43089;DHT22;28709;52.030;5.652;2022-12-20T01:57:17;10.20;99.90
43089;DHT22;28709;52.030;5.652;2022-12-20T01:59:45;10.10;99.90
43089;DHT22;28709;52.030;5.652;2022-12-20T02:02:12;10.00;99.90
43089;DHT22;28709;52.030;5.652;2022-12-20T02:04:39;10.00;99.90
43089;DHT22;28709;52.030;5.652;2022-12-20T02:07:06;9.90;99.90
43089;DHT22;28709;52.030;5.652;2022-12-20T02:09:34;9.90;99.90
43089;DHT22;28709;52.030;5.652;2022-12-20T02:12:20;9.90;99.90
43089;DHT22;28709;52.030;5.652;2022-12-20T02:15:16;9.90;99.90
43089;DHT22;28709;52.030;5.652;2022-12-20T02:18:15;9.80;99.90
43089;DHT22;28709;52.030;5.652;2022-12-20T02:23:40;9.80;99.90
43089;DHT22;28709;52.030;5.652;2022-12-20T02:31:39;9.80;99.90
43089;DHT22;28709;52.030;5.652;2022-12-20T02:34:06;9.80;99.90
43089;DHT22;28709;52.030;5.652;2022-12-20T02:36:33;9.80;99.90
43089;DHT22;28709;52.030;5.652;2022-12-20T02:38:59;9.80;99.90
43089;DHT22;28709;52.030;5.652;2022-12-20T02:41:47;9.70;99.90
43089;DHT22;28709;52.030;5.652;2022-12-20T02:44:16;9.70;99.90
43089;DHT22;28709;52.030;5.652;2022-12-20T02:47:04;9.80;99.90
43089;DHT22;28709;52.030;5.652;2022-12-20T02:49:36;9.70;99.90
43089;DHT22;28709;52.030;5.652;2022-12-20T02:52:09;9.80;99.90
43089;DHT22;28709;52.030;5.652;2022-12-20T02:54:37;9.80;99.90
43089;DHT22;28709;52.030;5.652;2022-12-20T02:57:48;9.80;99.90
43089;DHT22;28709;52.030;5.652;2022-12-20T03:00:14;9.90;99.90
43089;DHT22;28709;52.030;5.652;2022-12-20T03:02:42;9.80;99.90
43089;DHT22;28709;52.030;5.652;2022-12-20T03:05:27;9.90;99.90
43089;DHT22;28709;52.030;5.652;2022-12-20T03:07:53;9.90;99.90
43089;DHT22;28709;52.030;5.652;2022-12-20T03:10:20;9.90;99.90
43089;DHT22;28709;52.030;5.652;2022-12-20T03:12:46;9.90;99.90
43089;DHT22;28709;52.030;5.652;2022-12-20T03:15:12;9.90;99.90
43089;DHT22;28709;52.030;5.652;2022-12-20T03:17:38;9.90;99.90
43089;DHT22;28709;52.030;5.652;2022-12-20T03:20:05;9.90;99.90
43089;DHT22;28709;52.030;5.652;2022-12-20T03:22:32;9.90;99.90
43089;DHT22;28709;52.030;5.652;2022-12-20T03:24:59;9.90;99.90
43089;DHT22;28709;52.030;5.652;2022-12-20T03:27:24;9.90;99.90
43089;DHT22;28709;52.030;5.652;2022-12-20T03:29:53;9.90;99.90
43089;DHT22;28709;52.030;5.652;2022-12-20T03:32:19;10.00;99.90
43089;DHT22;28709;52.030;5.652;2022-12-20T03:34:45;10.00;99.90
43089;DHT22;28709;52.030;5.652;2022-12-20T03:37:11;10.00;99.90
43089;DHT22;28709;52.030;5.652;2022-12-20T03:39:36;10.00;99.90
43089;DHT22;28709;52.030;5.652;2022-12-20T03:42:02;10.10;99.90
43089;DHT22;28709;52.030;5.652;2022-12-20T03:44:28;10.10;99.90
43089;DHT22;28709;52.030;5.652;2022-12-20T03:46:53;10.20;99.90
43089;DHT22;28709;52.030;5.652;2022-12-20T03:49:19;10.20;99.90
43089;DHT22;28709;52.030;5.652;2022-12-20T03:51:44;10.30;99.90
43089;DHT22;28709;52.030;5.652;2022-12-20T03:54:10;10.30;99.90
43089;DHT22;28709;52.030;5.652;2022-12-20T03:56:36;10.30;99.90
43089;DHT22;28709;52.030;5.652;2022-12-20T03:59:01;10.30;99.90
43089;DHT22;28709;52.030;5.652;2022-12-20T04:01:28;10.40;99.90
43089;DHT22;28709;52.030;5.652;2022-12-20T04:03:54;10.40;99.90
43089;DHT22;28709;52.030;5.652;2022-12-20T04:06:21;10.50;99.90
43089;DHT22;28709;52.030;5.652;2022-12-20T04:08:47;10.50;99.90
43089;DHT22;28709;52.030;5.652;2022-12-20T04:11:13;10.50;99.90
43089;DHT22;28709;52.030;5.652;2022-12-20T04:13:47;10.60;99.90
43089;DHT22;28709;52.030;5.652;2022-12-20T04:16:16;10.50;99.90
43089;DHT22;28709;52.030;5.652;2022-12-20T04:18:42;10.60;99.90
43089;DHT22;28709;52.030;5.652;2022-12-20T04:21:08;10.70;99.90
43089;DHT22;28709;52.030;5.652;2022-12-20T04:23:36;10.70;99.90
43089;DHT22;28709;52.030;5.652;2022-12-20T04:26:03;10.70;99.90
43089;DHT22;28709;52.030;5.652;2022-12-20T04:28:30;10.80;99.90
43089;DHT22;28709;52.030;5.652;2022-12-20T04:30:56;10.90;99.90
43089;DHT22;28709;52.030;5.652;2022-12-20T04:33:23;10.90;99.90
43089;DHT22;28709;52.030;5.652;2022-12-20T04:35:50;10.90;99.90
43089;DHT22;28709;52.030;5.652;2022-12-20T04:38:17;10.90;99.90
43089;DHT22;28709;52.030;5.652;2022-12-20T04:40:43;11.00;99.90
43089;DHT22;28709;52.030;5.652;2022-12-20T04:43:09;11.00;99.90
43089;DHT22;28709;52.030;5.652;2022-12-20T04:45:34;11.00;99.90
43089;DHT22;28709;52.030;5.652;2022-12-20T04:48:00;11.10;99.90
43089;DHT22;28709;52.030;5.652;2022-12-20T04:50:26;11.10;99.90
43089;DHT22;28709;52.030;5.652;2022-12-20T04:52:51;11.20;99.90
43089;DHT22;28709;52.030;5.652;2022-12-20T04:55:39;11.20;99.90
43089;DHT22;28709;52.030;5.652;2022-12-20T04:58:06;11.20;99.90
43089;DHT22;28709;52.030;5.652;2022-12-20T05:00:32;11.20;99.90
43089;DHT22;28709;52.030;5.652;2022-12-20T05:02:58;11.20;99.90
43089;DHT22;28709;52.030;5.652;2022-12-20T05:05:24;11.10;99.90
43089;DHT22;28709;52.030;5.652;2022-12-20T05:07:50;11.10;99.90
43089;DHT22;28709;52.030;5.652;2022-12-20T05:10:16;11.00;99.90
43089;DHT22;28709;52.030;5.652;2022-12-20T05:12:42;10.90;99.90
43089;DHT22;28709;52.030;5.652;2022-12-20T05:15:08;10.80;99.90
43089;DHT22;28709;52.030;5.652;2022-12-20T05:17:34;10.70;99.90
43089;DHT22;28709;52.030;5.652;2022-12-20T05:20:00;10.70;99.90
43089;DHT22;28709;52.030;5.652;2022-12-20T05:22:25;10.60;99.90
43089;DHT22;28709;52.030;5.652;2022-12-20T05:25:10;10.60;99.90
43089;DHT22;28709;52.030;5.652;2022-12-20T05:27:55;10.60;99.90
43089;DHT22;28709;52.030;5.652;2022-12-20T05:30:21;10.50;99.90
43089;DHT22;28709;52.030;5.652;2022-12-20T05:32:47;10.50;99.90
43089;DHT22;28709;52.030;5.652;2022-12-20T05:35:13;10.50;99.90
43089;DHT22;28709;52.030;5.652;2022-12-20T05:37:39;10.50;99.90
43089;DHT22;28709;52.030;5.652;2022-12-20T05:40:05;10.60;99.90
43089;DHT22;28709;52.030;5.652;2022-12-20T05:42:31;10.60;99.90
43089;DHT22;28709;52.030;5.652;2022-12-20T05:44:57;10.60;99.90
43089;DHT22;28709;52.030;5.652;2022-12-20T05:47:22;10.60;99.90
43089;DHT22;28709;52.030;5.652;2022-12-20T05:49:49;10.50;99.90
43089;DHT22;28709;52.030;5.652;2022-12-20T05:52:14;10.50;99.90
43089;DHT22;28709;52.030;5.652;2022-12-20T05:54:40;10.50;99.90
43089;DHT22;28709;52.030;5.652;2022-12-20T05:57:06;10.40;99.90
43089;DHT22;28709;52.030;5.652;2022-12-20T05:59:31;10.40;99.90
43089;DHT22;28709;52.030;5.652;2022-12-20T06:01:57;10.30;99.90
43089;DHT22;28709;52.030;5.652;2022-12-20T06:04:22;10.40;99.90
43089;DHT22;28709;52.030;5.652;2022-12-20T06:06:48;10.40;99.90
43089;DHT22;28709;52.030;5.652;2022-12-20T06:09:14;10.40;99.90
43089;DHT22;28709;52.030;5.652;2022-12-20T06:11:39;10.50;99.90
43089;DHT22;28709;52.030;5.652;2022-12-20T06:14:05;10.50;99.90
43089;DHT22;28709;52.030;5.652;2022-12-20T06:16:30;10.50;99.90
43089;DHT22;28709;52.030;5.652;2022-12-20T06:18:56;10.60;99.90
43089;DHT22;28709;52.030;5.652;2022-12-20T06:21:22;10.70;99.90
43089;DHT22;28709;52.030;5.652;2022-12-20T06:23:48;10.80;99.90
43089;DHT22;28709;52.030;5.652;2022-12-20T06:26:13;10.80;99.90
43089;DHT22;28709;52.030;5.652;2022-12-20T06:28:39;10.90;99.90
43089;DHT22;28709;52.030;5.652;2022-12-20T06:31:08;10.90;99.90
43089;DHT22;28709;52.030;5.652;2022-12-20T06:33:35;11.00;99.90
43089;DHT22;28709;52.030;5.652;2022-12-20T06:36:01;11.00;99.90
43089;DHT22;28709;52.030;5.652;2022-12-20T06:38:27;11.00;99.90
43089;DHT22;28709;52.030;5.652;2022-12-20T06:40:52;11.10;99.90
43089;DHT22;28709;52.030;5.652;2022-12-20T06:43:18;11.20;99.90
43089;DHT22;28709;52.030;5.652;2022-12-20T06:45:44;11.20;99.90
43089;DHT22;28709;52.030;5.652;2022-12-20T06:48:09;11.20;99.90
43089;DHT22;28709;52.030;5.652;2022-12-20T06:50:36;11.20;99.90
43089;DHT22;28709;52.030;5.652;2022-12-20T06:53:02;11.20;99.90
43089;DHT22;28709;52.030;5.652;2022-12-20T06:55:28;11.30;99.90
43089;DHT22;28709;52.030;5.652;2022-12-20T06:57:53;11.30;99.90
43089;DHT22;28709;52.030;5.652;2022-12-20T07:00:21;11.30;99.90
43089;DHT22;28709;52.030;5.652;2022-12-20T07:02:47;11.40;99.90
43089;DHT22;28709;52.030;5.652;2022-12-20T07:05:12;11.30;99.90
43089;DHT22;28709;52.030;5.652;2022-12-20T07:07:38;11.40;99.90
43089;DHT22;28709;52.030;5.652;2022-12-20T07:10:04;11.40;99.90
43089;DHT22;28709;52.030;5.652;2022-12-20T07:12:30;11.40;99.90
43089;DHT22;28709;52.030;5.652;2022-12-20T07:14:57;11.50;99.90
43089;DHT22;28709;52.030;5.652;2022-12-20T07:17:23;11.50;99.90
43089;DHT22;28709;52.030;5.652;2022-12-20T07:19:49;11.60;99.90
43089;DHT22;28709;52.030;5.652;2022-12-20T07:22:14;11.50;99.90
43089;DHT22;28709;52.030;5.652;2022-12-20T07:24:40;11.60;99.90
43089;DHT22;28709;52.030;5.652;2022-12-20T07:27:06;11.60;99.90
43089;DHT22;28709;52.030;5.652;2022-12-20T07:29:32;11.60;99.90
43089;DHT22;28709;52.030;5.652;2022-12-20T07:31:58;11.50;99.90
43089;DHT22;28709;52.030;5.652;2022-12-20T07:34:23;11.50;99.90
43089;DHT22;28709;52.030;5.652;2022-12-20T07:36:49;11.50;99.90
43089;DHT22;28709;52.030;5.652;2022-12-20T07:39:15;11.50;99.90
43089;DHT22;28709;52.030;5.652;2022-12-20T07:41:41;11.50;99.90
43089;DHT22;28709;52.030;5.652;2022-12-20T07:44:06;11.50;99.90
43089;DHT22;28709;52.030;5.652;2022-12-20T07:46:32;11.50;99.90
43089;DHT22;28709;52.030;5.652;2022-12-20T07:48:58;11.50;99.90
43089;DHT22;28709;52.030;5.652;2022-12-20T07:51:29;11.40;99.90
43089;DHT22;28709;52.030;5.652;2022-12-20T07:56:34;11.40;99.90
43089;DHT22;28709;52.030;5.652;2022-12-20T07:59:02;11.40;99.90
43089;DHT22;28709;52.030;5.652;2022-12-20T08:01:28;11.40;99.90
43089;DHT22;28709;52.030;5.652;2022-12-20T08:04:04;11.30;99.90
43089;DHT22;28709;52.030;5.652;2022-12-20T08:06:32;11.30;99.90
43089;DHT22;28709;52.030;5.652;2022-12-20T08:09:02;11.20;99.90
43089;DHT22;28709;52.030;5.652;2022-12-20T08:11:29;11.20;99.90
43089;DHT22;28709;52.030;5.652;2022-12-20T08:13:56;11.20;99.90
43089;DHT22;28709;52.030;5.652;2022-12-20T08:16:22;11.20;99.90
43089;DHT22;28709;52.030;5.652;2022-12-20T08:18:47;11.20;99.90
43089;DHT22;28709;52.030;5.652;2022-12-20T08:21:13;11.20;99.90
43089;DHT22;28709;52.030;5.652;2022-12-20T08:23:39;11.30;99.90
43089;DHT22;28709;52.030;5.652;2022-12-20T08:26:05;11.30;99.90
43089;DHT22;28709;52.030;5.652;2022-12-20T08:28:30;11.20;99.90
43089;DHT22;28709;52.030;5.652;2022-12-20T08:31:04;11.20;99.90
43089;DHT22;28709;52.030;5.652;2022-12-20T08:33:31;11.20;99.90
43089;DHT22;28709;52.030;5.652;2022-12-20T08:36:01;11.20;99.90
43089;DHT22;28709;52.030;5.652;2022-12-20T08:38:31;11.20;99.90
43089;DHT22;28709;52.030;5.652;2022-12-20T08:41:11;11.20;99.90
43089;DHT22;28709;52.030;5.652;2022-12-20T08:43:38;11.30;99.90
43089;DHT22;28709;52.030;5.652;2022-12-20T08:46:05;11.30;99.90
43089;DHT22;28709;52.030;5.652;2022-12-20T08:48:31;11.30;99.90
43089;DHT22;28709;52.030;5.652;2022-12-20T08:51:02;11.30;99.90
43089;DHT22;28709;52.030;5.652;2022-12-20T08:53:29;11.30;99.90
43089;DHT22;28709;52.030;5.652;2022-12-20T08:56:08;11.30;99.90
43089;DHT22;28709;52.030;5.652;2022-12-20T08:58:35;11.20;99.90
43089;DHT22;28709;52.030;5.652;2022-12-20T09:01:04;11.20;99.90
43089;DHT22;28709;52.030;5.652;2022-12-20T09:03:31;11.10;99.90
43089;DHT22;28709;52.030;5.652;2022-12-20T09:05:57;11.00;99.90
43089;DHT22;28709;52.030;5.652;2022-12-20T09:08:23;11.00;99.90
43089;DHT22;28709;52.030;5.652;2022-12-20T09:10:49;10.90;99.90
43089;DHT22;28709;52.030;5.652;2022-12-20T09:13:15;10.80;99.90
43089;DHT22;28709;52.030;5.652;2022-12-20T09:15:40;10.80;99.90
43089;DHT22;28709;52.030;5.652;2022-12-20T09:18:07;10.70;99.90
43089;DHT22;28709;52.030;5.652;2022-12-20T09:20:33;10.60;99.90
43089;DHT22;28709;52.030;5.652;2022-12-20T09:22:59;10.50;99.90
43089;DHT22;28709;52.030;5.652;2022-12-20T09:25:26;10.50;99.90
43089;DHT22;28709;52.030;5.652;2022-12-20T09:27:52;10.40;99.90
43089;DHT22;28709;52.030;5.652;2022-12-20T09:30:21;10.40;99.90
43089;DHT22;28709;52.030;5.652;2022-12-20T09:32:47;10.30;99.90
43089;DHT22;28709;52.030;5.652;2022-12-20T09:35:12;10.30;99.90
43089;DHT22;28709;52.030;5.652;2022-12-20T09:37:38;10.30;99.90
43089;DHT22;28709;52.030;5.652;2022-12-20T09:40:04;10.20;99.90
43089;DHT22;28709;52.030;5.652;2022-12-20T09:42:33;10.20;99.90
43089;DHT22;28709;52.030;5.652;2022-12-20T09:45:05;10.20;99.90
43089;DHT22;28709;52.030;5.652;2022-12-20T09:47:34;10.20;99.90
43089;DHT22;28709;52.030;5.652;2022-12-20T09:50:02;10.20;99.90
43089;DHT22;28709;52.030;5.652;2022-12-20T09:53:08;10.20;99.90
43089;DHT22;28709;52.030;5.652;2022-12-20T09:55:43;10.20;99.90
43089;DHT22;28709;52.030;5.652;2022-12-20T10:00:47;10.20;99.90
43089;DHT22;28709;52.030;5.652;2022-12-20T10:03:21;10.20;99.90
43089;DHT22;28709;52.030;5.652;2022-12-20T10:05:53;10.20;99.90
43089;DHT22;28709;52.030;5.652;2022-12-20T10:11:08;10.20;99.90
43089;DHT22;28709;52.030;5.652;2022-12-20T10:16:31;10.20;99.90
43089;DHT22;28709;52.030;5.652;2022-12-20T10:22:03;10.10;99.90
43089;DHT22;28709;52.030;5.652;2022-12-20T10:24:33;10.10;99.90
43089;DHT22;28709;52.030;5.652;2022-12-20T10:27:11;10.10;99.90
43089;DHT22;28709;52.030;5.652;2022-12-20T10:29:39;10.10;99.90
43089;DHT22;28709;52.030;5.652;2022-12-20T10:32:14;10.10;99.90
43089;DHT22;28709;52.030;5.652;2022-12-20T10:34:50;10.00;99.90
43089;DHT22;28709;52.030;5.652;2022-12-20T10:37:16;10.00;99.90
43089;DHT22;28709;52.030;5.652;2022-12-20T10:39:46;10.00;99.90
43089;DHT22;28709;52.030;5.652;2022-12-20T10:42:39;10.00;99.90
43089;DHT22;28709;52.030;5.652;2022-12-20T10:45:32;10.00;99.90
43089;DHT22;28709;52.030;5.652;2022-12-20T10:48:00;10.00;99.90
43089;DHT22;28709;52.030;5.652;2022-12-20T10:50:27;10.00;99.90
43089;DHT22;28709;52.030;5.652;2022-12-20T10:55:38;10.00;99.90
43089;DHT22;28709;52.030;5.652;2022-12-20T10:58:16;10.00;99.90
43089;DHT22;28709;52.030;5.652;2022-12-20T11:00:43;10.00;99.90
43089;DHT22;28709;52.030;5.652;2022-12-20T11:03:19;10.00;99.90
43089;DHT22;28709;52.030;5.652;2022-12-20T11:06:08;10.00;99.90
43089;DHT22;28709;52.030;5.652;2022-12-20T11:08:39;10.00;99.90
43089;DHT22;28709;52.030;5.652;2022-12-20T11:13:37;10.00;99.90
43089;DHT22;28709;52.030;5.652;2022-12-20T11:16:03;10.10;99.90
43089;DHT22;28709;52.030;5.652;2022-12-20T11:21:53;10.10;99.90
43089;DHT22;28709;52.030;5.652;2022-12-20T11:24:42;10.10;99.90
43089;DHT22;28709;52.030;5.652;2022-12-20T11:27:15;10.10;99.90
43089;DHT22;28709;52.030;5.652;2022-12-20T11:30:03;10.10;99.90
43089;DHT22;28709;52.030;5.652;2022-12-20T11:35:10;10.10;99.90
43089;DHT22;28709;52.030;5.652;2022-12-20T11:43:43;10.20;99.90
43089;DHT22;28709;52.030;5.652;2022-12-20T11:55:01;10.20;99.90
43089;DHT22;28709;52.030;5.652;2022-12-20T11:57:35;10.30;99.90
43089;DHT22;28709;52.030;5.652;2022-12-20T12:00:04;10.30;99.90
43089;DHT22;28709;52.030;5.652;2022-12-20T12:02:42;10.30;99.90
43089;DHT22;28709;52.030;5.652;2022-12-20T12:05:19;10.30;99.90
43089;DHT22;28709;52.030;5.652;2022-12-20T12:07:50;10.30;99.90
43089;DHT22;28709;52.030;5.652;2022-12-20T12:10:29;10.30;99.90
43089;DHT22;28709;52.030;5.652;2022-12-20T12:16:17;10.30;99.90
43089;DHT22;28709;52.030;5.652;2022-12-20T12:18:44;10.30;99.90
43089;DHT22;28709;52.030;5.652;2022-12-20T12:21:34;10.30;99.90
43089;DHT22;28709;52.030;5.652;2022-12-20T12:26:34;10.40;99.90
43089;DHT22;28709;52.030;5.652;2022-12-20T12:31:35;10.40;99.90
43089;DHT22;28709;52.030;5.652;2022-12-20T12:40:12;10.40;99.90
43089;DHT22;28709;52.030;5.652;2022-12-20T12:45:55;10.40;99.90
43089;DHT22;28709;52.030;5.652;2022-12-20T12:48:45;10.50;99.90
43089;DHT22;28709;52.030;5.652;2022-12-20T12:51:14;10.50;99.90
43089;DHT22;28709;52.030;5.652;2022-12-20T12:53:51;10.50;99.90
43089;DHT22;28709;52.030;5.652;2022-12-20T13:01:50;10.50;99.90
43089;DHT22;28709;52.030;5.652;2022-12-20T13:04:26;10.50;99.90
43089;DHT22;28709;52.030;5.652;2022-12-20T13:11:56;10.50;99.90
43089;DHT22;28709;52.030;5.652;2022-12-20T13:19:37;10.50;99.90
43089;DHT22;28709;52.030;5.652;2022-12-20T13:24:59;10.50;99.90
43089;DHT22;28709;52.030;5.652;2022-12-20T13:27:38;10.50;99.90
43089;DHT22;28709;52.030;5.652;2022-12-20T13:35:44;10.50;99.90
43089;DHT22;28709;52.030;5.652;2022-12-20T13:40:49;10.40;99.90
43089;DHT22;28709;52.030;5.652;2022-12-20T13:49:11;10.40;99.90
43089;DHT22;28709;52.030;5.652;2022-12-20T13:51:17;10.40;99.90
43089;DHT22;28709;52.030;5.652;2022-12-20T13:53:54;10.40;99.90
43089;DHT22;28709;52.030;5.652;2022-12-20T13:56:41;10.50;99.90
43089;DHT22;28709;52.030;5.652;2022-12-20T13:59:19;10.40;99.90
43089;DHT22;28709;52.030;5.652;2022-12-20T14:01:49;10.40;99.90
43089;DHT22;28709;52.030;5.652;2022-12-20T14:04:17;10.40;99.90
43089;DHT22;28709;52.030;5.652;2022-12-20T14:06:43;10.40;99.90
43089;DHT22;28709;52.030;5.652;2022-12-20T14:11:53;10.50;99.90
43089;DHT22;28709;52.030;5.652;2022-12-20T14:14:19;10.40;99.90
43089;DHT22;28709;52.030;5.652;2022-12-20T14:16:44;10.40;99.90
43089;DHT22;28709;52.030;5.652;2022-12-20T14:19:14;10.40;99.90
43089;DHT22;28709;52.030;5.652;2022-12-20T14:21:42;10.40;99.90
43089;DHT22;28709;52.030;5.652;2022-12-20T14:24:15;10.40;99.90
43089;DHT22;28709;52.030;5.652;2022-12-20T14:26:45;10.40;99.90
43089;DHT22;28709;52.030;5.652;2022-12-20T14:29:17;10.50;99.90
43089;DHT22;28709;52.030;5.652;2022-12-20T14:31:46;10.40;99.90
43089;DHT22;28709;52.030;5.652;2022-12-20T14:34:33;10.50;99.90
43089;DHT22;28709;52.030;5.652;2022-12-20T14:37:27;10.40;99.90
43089;DHT22;28709;52.030;5.652;2022-12-20T14:40:17;10.40;99.90
43089;DHT22;28709;52.030;5.652;2022-12-20T14:42:43;10.40;99.90
43089;DHT22;28709;52.030;5.652;2022-12-20T14:47:56;10.40;99.90
43089;DHT22;28709;52.030;5.652;2022-12-20T14:50:27;10.40;99.90
43089;DHT22;28709;52.030;5.652;2022-12-20T14:52:53;10.40;99.90
43089;DHT22;28709;52.030;5.652;2022-12-20T14:55:27;10.40;99.90
43089;DHT22;28709;52.030;5.652;2022-12-20T14:57:55;10.40;99.90
43089;DHT22;28709;52.030;5.652;2022-12-20T15:00:30;10.40;99.90
43089;DHT22;28709;52.030;5.652;2022-12-20T15:08:23;10.30;99.90
43089;DHT22;28709;52.030;5.652;2022-12-20T15:13:38;10.30;99.90
43089;DHT22;28709;52.030;5.652;2022-12-20T15:16:23;10.40;99.90
43089;DHT22;28709;52.030;5.652;2022-12-20T15:18:54;10.30;99.90
43089;DHT22;28709;52.030;5.652;2022-12-20T15:21:34;10.30;99.90
43089;DHT22;28709;52.030;5.652;2022-12-20T15:24:03;10.30;99.90
43089;DHT22;28709;52.030;5.652;2022-12-20T15:26:33;10.30;99.90
43089;DHT22;28709;52.030;5.652;2022-12-20T15:28:58;10.30;99.90
43089;DHT22;28709;52.030;5.652;2022-12-20T15:31:26;10.30;99.90
43089;DHT22;28709;52.030;5.652;2022-12-20T15:33:52;10.30;99.90
43089;DHT22;28709;52.030;5.652;2022-12-20T15:36:26;10.30;99.90
43089;DHT22;28709;52.030;5.652;2022-12-20T15:38:53;10.30;99.90
43089;DHT22;28709;52.030;5.652;2022-12-20T15:41:22;10.30;99.90
43089;DHT22;28709;52.030;5.652;2022-12-20T15:43:56;10.30;99.90
43089;DHT22;28709;52.030;5.652;2022-12-20T15:46:24;10.30;99.90
43089;DHT22;28709;52.030;5.652;2022-12-20T15:48:51;10.30;99.90
43089;DHT22;28709;52.030;5.652;2022-12-20T15:51:30;10.30;99.90
43089;DHT22;28709;52.030;5.652;2022-12-20T15:53:57;10.30;99.90
43089;DHT22;28709;52.030;5.652;2022-12-20T15:56:24;10.30;99.90
43089;DHT22;28709;52.030;5.652;2022-12-20T15:58:50;10.30;99.90
43089;DHT22;28709;52.030;5.652;2022-12-20T16:01:36;10.30;99.90
43089;DHT22;28709;52.030;5.652;2022-12-20T16:04:03;10.30;99.90
43089;DHT22;28709;52.030;5.652;2022-12-20T16:06:29;10.30;99.90
43089;DHT22;28709;52.030;5.652;2022-12-20T16:08:55;10.30;99.90
43089;DHT22;28709;52.030;5.652;2022-12-20T16:11:30;10.30;99.90
43089;DHT22;28709;52.030;5.652;2022-12-20T16:13:57;10.30;99.90
43089;DHT22;28709;52.030;5.652;2022-12-20T16:16:25;10.30;99.90
43089;DHT22;28709;52.030;5.652;2022-12-20T16:18:51;10.20;99.90
43089;DHT22;28709;52.030;5.652;2022-12-20T16:21:24;10.20;99.90
43089;DHT22;28709;52.030;5.652;2022-12-20T16:23:51;10.20;99.90
43089;DHT22;28709;52.030;5.652;2022-12-20T16:26:19;10.20;99.90
43089;DHT22;28709;52.030;5.652;2022-12-20T16:28:46;10.20;99.90
43089;DHT22;28709;52.030;5.652;2022-12-20T16:31:27;10.20;99.90
43089;DHT22;28709;52.030;5.652;2022-12-20T16:33:54;10.20;99.90
43089;DHT22;28709;52.030;5.652;2022-12-20T16:36:21;10.20;99.90
43089;DHT22;28709;52.030;5.652;2022-12-20T16:38:47;10.20;99.90
43089;DHT22;28709;52.030;5.652;2022-12-20T16:41:18;10.20;99.90
43089;DHT22;28709;52.030;5.652;2022-12-20T16:43:44;10.10;99.90
43089;DHT22;28709;52.030;5.652;2022-12-20T16:46:16;10.20;99.90
43089;DHT22;28709;52.030;5.652;2022-12-20T16:48:43;10.20;99.90
43089;DHT22;28709;52.030;5.652;2022-12-20T16:53:57;10.10;99.90
43089;DHT22;28709;52.030;5.652;2022-12-20T16:56:23;10.10;99.90
43089;DHT22;28709;52.030;5.652;2022-12-20T16:58:49;10.10;99.90
43089;DHT22;28709;52.030;5.652;2022-12-20T17:01:16;10.10;99.90
43089;DHT22;28709;52.030;5.652;2022-12-20T17:03:44;10.10;99.90
43089;DHT22;28709;52.030;5.652;2022-12-20T17:06:12;10.10;99.90
43089;DHT22;28709;52.030;5.652;2022-12-20T17:08:38;10.10;99.90
43089;DHT22;28709;52.030;5.652;2022-12-20T17:11:22;10.10;99.90
43089;DHT22;28709;52.030;5.652;2022-12-20T17:13:50;10.10;99.90
43089;DHT22;28709;52.030;5.652;2022-12-20T17:16:17;10.00;99.90
43089;DHT22;28709;52.030;5.652;2022-12-20T17:18:45;10.00;99.90
43089;DHT22;28709;52.030;5.652;2022-12-20T17:21:38;10.00;99.90
43089;DHT22;28709;52.030;5.652;2022-12-20T17:24:07;10.00;99.90
43089;DHT22;28709;52.030;5.652;2022-12-20T17:26:37;10.00;99.90
43089;DHT22;28709;52.030;5.652;2022-12-20T17:29:03;10.00;99.90
43089;DHT22;28709;52.030;5.652;2022-12-20T17:31:34;10.00;99.90
43089;DHT22;28709;52.030;5.652;2022-12-20T17:34:49;10.00;99.90
43089;DHT22;28709;52.030;5.652;2022-12-20T17:36:52;10.00;99.90
43089;DHT22;28709;52.030;5.652;2022-12-20T17:39:19;10.00;99.90
43089;DHT22;28709;52.030;5.652;2022-12-20T17:41:45;10.00;99.90